Time;durP1;ratioP1;P1;durP2;ratioP2;P2;SDS_P1;SDS_P2;PMS_P1;PMS_P2;Temp;Humidity;BMP_temperature;BMP_pressure;BME280_temperature;BME280_humidity;BME280_pressure;Samples;Min_cycle;Max_cycle;Signal;HPM_P1;HPM_P2
2022/09/03 00:00:13;;;;;;;10.82;1.80;;;;;;;18.30;43.08;99340.72;12209349;19;20472;-83
2022/09/03 00:04:28;;;;;;;1.48;1.10;;;;;;;18.31;42.81;99339.59;12182488;19;20006;-81
2022/09/03 00:08:37;;;;;;;2.55;1.30;;;;;;;18.30;43.15;99337.94;12207894;19;20027;-81
2022/09/03 00:12:43;;;;;;;2.75;1.02;;;;;;;18.28;43.12;99339.38;12181890;19;20014;-81
2022/09/03 00:16:59;;;;;;;2.95;1.20;;;;;;;18.28;43.24;99345.78;12202943;19;20019;-80
2022/09/03 00:21:07;;;;;;;4.10;1.52;;;;;;;18.29;43.02;99341.84;12207988;19;20011;-82
2022/09/03 00:25:27;;;;;;;1.77;1.10;;;;;;;18.30;43.26;99337.13;12181759;19;20111;-82
2022/09/03 00:29:40;;;;;;;1.25;0.98;;;;;;;18.27;43.41;99326.59;12212098;19;20024;-80
2022/09/03 00:33:45;;;;;;;3.47;1.20;;;;;;;18.22;43.35;99328.34;12195510;19;20014;-81
2022/09/03 00:37:47;;;;;;;3.42;1.30;;;;;;;18.18;43.71;99334.88;12218968;19;20014;-81
2022/09/03 00:41:58;;;;;;;;;;;;;;;18.18;43.67;99320.94;12220686;19;20027;-82
2022/09/03 00:46:06;;;;;;;4.25;1.02;;;;;;;18.15;44.10;99318.75;12192658;19;19971;-82
2022/09/03 00:50:28;;;;;;;1.58;0.90;;;;;;;18.15;44.11;99319.59;12218122;19;20002;-81
2022/09/03 00:54:39;;;;;;;2.73;0.93;;;;;;;18.17;43.50;99325.69;12194076;19;20007;-82
2022/09/03 00:59:00;;;;;;;2.15;1.05;;;;;;;18.22;43.80;99324.72;12218807;19;20033;-83
2022/09/03 01:03:09;;;;;;;2.60;1.05;;;;;;;18.29;43.74;99329.88;12217643;19;20376;-81
2022/09/03 01:07:17;;;;;;;2.53;1.10;;;;;;;18.33;43.71;99339.28;12192523;19;20029;-80
2022/09/03 01:11:50;;;;;;;1.77;0.88;;;;;;;18.38;43.46;99337.22;12219155;19;20015;-81
2022/09/03 01:16:20;;;;;;;5.57;1.10;;;;;;;18.41;43.30;99350.53;12196727;19;20417;-80
2022/09/03 01:20:33;;;;;;;3.42;1.20;;;;;;;18.41;43.23;99333.78;12218790;19;20017;-81
2022/09/03 01:24:48;;;;;;;1.58;1.00;;;;;;;18.41;43.22;99327.38;12203540;19;20014;-82
2022/09/03 01:29:11;;;;;;;1.83;1.00;;;;;;;18.46;43.35;99321.69;12216004;19;20006;-83
2022/09/03 01:33:37;;;;;;;5.10;1.10;;;;;;;18.43;43.66;99325.09;12218568;19;20428;-82
2022/09/03 01:37:52;;;;;;;2.13;1.10;;;;;;;18.44;43.38;99316.44;12197350;19;20045;-81
2022/09/03 01:42:14;;;;;;;5.95;1.00;;;;;;;18.48;43.49;99311.03;12219004;19;20010;-81
2022/09/03 01:46:28;;;;;;;2.63;1.20;;;;;;;18.46;43.46;99316.09;12195343;19;20020;-82
2022/09/03 01:51:21;;;;;;;1.45;0.90;;;;;;;18.46;43.79;99318.88;12216812;19;20017;-81
2022/09/03 01:55:28;;;;;;;3.92;1.23;;;;;;;18.41;43.89;99324.56;12190140;19;20038;-79
2022/09/03 01:59:36;;;;;;;4.85;1.33;;;;;;;18.42;44.13;99335.44;12216184;19;20377;-79
2022/09/03 02:03:43;;;;;;;2.60;1.35;;;;;;;18.44;44.05;99332.31;12194349;19;20025;-79
2022/09/03 02:07:48;;;;;;;1.77;1.20;;;;;;;18.42;44.29;99337.41;12216296;19;20010;-79
2022/09/03 02:11:58;;;;;;;2.75;1.45;;;;;;;18.45;43.83;99340.38;12214119;19;20011;-79
2022/09/03 02:16:06;;;;;;;1.60;1.23;;;;;;;18.47;44.33;99333.66;12192213;19;20445;-79
2022/09/03 02:20:10;;;;;;;2.13;1.10;;;;;;;18.46;44.26;99335.63;12216363;19;20010;-79
2022/09/03 02:24:12;;;;;;;3.58;1.10;;;;;;;18.47;44.33;99334.47;12213631;19;20006;-80
2022/09/03 02:28:14;;;;;;;3.03;1.10;;;;;;;18.54;43.99;99326.53;12191609;19;20130;-82
2022/09/03 02:32:18;;;;;;;4.88;1.00;;;;;;;18.60;43.75;99349.56;12209004;19;20010;-81
2022/09/03 02:36:26;;;;;;;5.18;1.63;;;;;;;18.59;43.88;99339.50;12215410;19;20070;-81
2022/09/03 02:40:28;;;;;;;2.88;1.20;;;;;;;18.58;44.15;99335.91;12194490;19;20011;-81
2022/09/03 02:44:34;;;;;;;2.92;1.20;;;;;;;18.62;44.07;99338.88;12214844;19;20014;-80
2022/09/03 02:48:38;;;;;;;2.33;1.20;;;;;;;18.64;43.92;99340.22;12191567;19;20301;-81
2022/09/03 02:52:39;;;;;;;2.00;1.10;;;;;;;18.64;44.19;99337.44;12210488;19;20010;-82
2022/09/03 02:56:42;;;;;;;1.42;1.10;;;;;;;18.65;44.11;99332.69;12215140;19;20078;-78
2022/09/03 03:00:44;;;;;;;2.67;1.02;;;;;;;18.64;44.22;99329.06;12192817;19;20018;-79
2022/09/03 03:04:45;;;;;;;3.80;1.30;;;;;;;18.65;44.36;99333.50;12212476;19;20011;-79
2022/09/03 03:08:48;;;;;;;2.78;1.20;;;;;;;18.68;44.32;99330.09;12211987;19;20089;-78
2022/09/03 03:12:50;;;;;;;2.47;1.27;;;;;;;18.69;44.44;99342.09;12190701;19;20603;-79
2022/09/03 03:16:52;;;;;;;1.85;1.13;;;;;;;18.71;44.32;99336.16;12209826;19;20040;-80
2022/09/03 03:20:54;;;;;;;2.65;1.27;;;;;;;18.68;44.61;99329.28;12211018;19;20010;-79
2022/09/03 03:24:56;;;;;;;1.73;1.10;;;;;;;18.70;44.58;99326.16;12189053;19;20006;-77
2022/09/03 03:29:00;;;;;;;1.42;1.13;;;;;;;18.68;45.01;99321.72;12209321;19;20243;-79
2022/09/03 03:33:02;;;;;;;1.77;1.30;;;;;;;18.65;44.92;99316.78;12214369;19;20083;-78
2022/09/03 03:37:04;;;;;;;5.15;1.85;;;;;;;18.65;44.93;99322.34;12191245;19;20010;-78
2022/09/03 03:41:11;;;;;;;1.77;1.10;;;;;;;18.66;45.10;99321.22;12212677;19;20142;-79
2022/09/03 03:45:13;;;;;;;2.35;1.38;;;;;;;18.58;45.24;99326.72;12212769;19;20090;-78
2022/09/03 03:49:15;;;;;;;2.92;1.20;;;;;;;18.49;45.55;99334.19;12192281;19;20041;-78
2022/09/03 03:53:16;;;;;;;1.83;1.20;;;;;;;18.49;46.07;99336.97;12210249;19;20649;-80
2022/09/03 03:57:19;;;;;;;1.42;1.25;;;;;;;18.50;45.90;99338.59;12215252;19;20034;-81
2022/09/03 04:01:24;;;;;;;4.68;1.20;;;;;;;18.45;46.23;99340.38;12196156;19;20038;-78
2022/09/03 04:05:25;;;;;;;3.42;1.10;;;;;;;18.37;46.45;99337.50;12224472;19;20006;-79
2022/09/03 04:09:34;;;;;;;1.95;1.20;;;;;;;18.40;46.03;99339.66;12206045;19;20003;-79
2022/09/03 04:13:38;;;;;;;4.68;1.50;;;;;;;18.31;47.10;99342.38;12220953;19;20051;-78
2022/09/03 04:17:39;;;;;;;4.47;1.52;;;;;;;18.34;46.85;99343.72;12220372;19;20078;-78
2022/09/03 04:21:41;;;;;;;1.15;1.00;;;;;;;18.32;46.53;99338.47;12241087;19;20036;-77
2022/09/03 04:25:43;;;;;;;5.40;1.42;;;;;;;18.30;46.92;99337.13;12273374;19;20014;-78
2022/09/03 04:29:49;;;;;;;2.90;1.38;;;;;;;18.28;47.32;99320.69;12231042;19;20505;-80
2022/09/03 04:33:50;;;;;;;3.17;1.10;;;;;;;18.26;47.40;99322.13;12199889;19;20017;-77
2022/09/03 04:37:53;;;;;;;5.13;1.30;;;;;;;18.23;47.60;99320.78;12220599;19;20023;-80
2022/09/03 04:41:55;;;;;;;1.23;1.02;;;;;;;18.22;47.61;99331.13;12223525;19;20022;-79
2022/09/03 04:46:03;;;;;;;3.35;1.20;;;;;;;18.24;47.47;99330.00;12199417;19;20011;-79
2022/09/03 04:50:05;;;;;;;2.65;1.25;;;;;;;18.27;47.42;99335.78;12219946;19;20006;-80
2022/09/03 04:54:08;;;;;;;3.00;1.17;;;;;;;18.19;48.36;99337.31;12218426;19;20015;-77
2022/09/03 04:58:10;;;;;;;2.63;1.48;;;;;;;18.22;47.94;99333.91;12200064;19;20023;-79
2022/09/03 05:02:13;;;;;;;5.78;1.30;;;;;;;18.23;47.83;99331.94;12221500;19;20383;-78
2022/09/03 05:06:16;;;;;;;2.70;1.20;;;;;;;18.18;48.13;99332.06;12223084;19;20030;-79
2022/09/03 05:10:21;;;;;;;3.45;1.58;;;;;;;18.22;48.39;99336.69;12197690;19;20483;-81
2022/09/03 05:14:23;;;;;;;2.20;1.40;;;;;;;18.28;48.43;99340.22;12217143;19;20538;-79
2022/09/03 05:18:24;;;;;;;3.60;1.23;;;;;;;18.27;48.61;99349.72;12220838;19;20011;-78
2022/09/03 05:22:26;;;;;;;3.45;1.33;;;;;;;18.31;48.16;99352.72;12196159;19;20090;-79
2022/09/03 05:26:30;;;;;;;2.22;1.33;;;;;;;18.32;48.47;99345.97;12217416;19;20015;-79
2022/09/03 05:30:31;;;;;;;4.03;1.45;;;;;;;18.36;48.17;99356.22;12191342;19;20010;-80
2022/09/03 05:34:33;;;;;;;3.00;1.45;;;;;;;18.38;48.59;99358.69;12215053;19;20002;-77
2022/09/03 05:38:35;;;;;;;1.50;1.10;;;;;;;18.40;48.36;99371.19;12216866;19;20760;-79
2022/09/03 05:42:37;;;;;;;4.37;1.57;;;;;;;18.41;48.64;99380.38;12193234;19;20130;-80
2022/09/03 05:46:39;;;;;;;2.20;1.57;;;;;;;18.42;48.70;99368.09;12212674;19;20492;-79
2022/09/03 05:50:41;;;;;;;3.70;1.42;;;;;;;18.45;48.60;99378.63;12211546;19;20326;-80
2022/09/03 05:54:42;;;;;;;1.95;1.30;;;;;;;18.45;48.86;99389.78;12189068;19;20007;-80
2022/09/03 05:58:46;;;;;;;5.47;1.42;;;;;;;18.47;49.15;99387.47;12215262;19;20030;-79
2022/09/03 06:02:52;;;;;;;2.35;1.40;;;;;;;18.52;48.95;99389.34;12214533;19;20098;-79
2022/09/03 06:06:55;;;;;;;2.95;1.40;;;;;;;18.52;49.86;99394.94;12190568;19;20010;-79
2022/09/03 06:10:58;;;;;;;6.22;1.80;;;;;;;18.36;52.75;99405.59;12204595;19;20550;-77
2022/09/03 06:14:59;;;;;;;3.08;1.63;;;;;;;18.03;58.56;99404.91;12202956;19;20086;-79
2022/09/03 06:19:02;;;;;;;4.68;2.40;;;;;;;17.65;62.59;99411.41;12170491;19;20006;-79
2022/09/03 06:23:04;;;;;;;;;;;;;;;17.35;66.22;99412.78;12212878;19;20078;-81
2022/09/03 06:27:07;;;;;;;5.90;2.42;;;;;;;17.15;66.57;99421.47;12211205;19;20264;-81
2022/09/03 06:31:13;;;;;;;3.58;3.00;;;;;;;16.97;69.87;99428.69;12197705;19;20031;-81
2022/09/03 06:35:15;;;;;;;7.05;2.60;;;;;;;16.91;71.14;99435.47;12220403;19;20041;-81
2022/09/03 06:39:17;;;;;;;5.13;2.63;;;;;;;16.82;72.74;99438.94;12225121;19;20010;-80
2022/09/03 06:43:19;;;;;;;4.07;3.15;;;;;;;16.78;77.85;99437.06;12201096;19;20045;-81
2022/09/03 06:47:20;;;;;;;5.55;2.75;;;;;;;16.89;78.50;99432.97;12219275;19;20007;-80
2022/09/03 06:51:25;;;;;;;4.43;3.13;;;;;;;17.08;78.07;99438.56;12224505;19;20095;-80
2022/09/03 06:55:27;;;;;;;5.47;2.45;;;;;;;17.19;79.38;99442.84;12202230;19;20060;-80
2022/09/03 06:59:29;;;;;;;3.65;2.50;;;;;;;17.31;79.08;99451.56;12227578;19;20082;-80
2022/09/03 07:03:31;;;;;;;6.38;2.70;;;;;;;17.40;78.15;99450.84;12235784;19;20314;-79
2022/09/03 07:07:33;;;;;;;4.07;2.97;;;;;;;17.35;82.70;99451.78;12267184;19;20015;-79
2022/09/03 07:11:36;;;;;;;4.70;2.97;;;;;;;17.35;84.21;99443.41;12267751;19;20267;-79
2022/09/03 07:15:39;;;;;;;3.78;2.95;;;;;;;17.42;83.53;99443.84;12238046;19;20022;-80
2022/09/03 07:19:40;;;;;;;;;;;;;;;17.45;85.08;99447.97;12237294;19;20036;-81
2022/09/03 07:23:42;;;;;;;4.28;3.08;;;;;;;17.49;82.93;99449.00;12234780;19;19935;-80
2022/09/03 07:27:46;;;;;;;3.88;2.90;;;;;;;17.47;83.84;99442.94;12205076;19;20017;-80
2022/09/03 07:31:52;;;;;;;4.00;3.15;;;;;;;17.39;83.90;99440.84;12230495;19;20018;-81
2022/09/03 07:35:54;;;;;;;4.57;2.80;;;;;;;17.22;85.83;99453.38;12228185;19;20011;-81
2022/09/03 07:39:55;;;;;;;4.80;2.95;;;;;;;17.11;85.42;99457.44;12216287;19;20023;-82
2022/09/03 07:43:58;;;;;;;4.38;3.33;;;;;;;17.01;89.09;99452.00;12231673;19;20034;-82
2022/09/03 07:48:00;;;;;;;7.18;3.83;;;;;;;17.00;90.15;99462.31;12233554;19;20002;-81
2022/09/03 07:52:02;;;;;;;7.50;4.03;;;;;;;17.00;90.31;99448.41;12205571;19;20006;-82
2022/09/03 07:56:08;;;;;;;5.80;3.80;;;;;;;16.90;93.57;99456.09;12227101;19;20019;-81
2022/09/03 08:00:12;;;;;;;4.53;3.72;;;;;;;16.90;93.38;99456.09;12230135;19;20007;-81
2022/09/03 08:04:13;;;;;;;6.10;3.90;;;;;;;17.01;93.00;99469.56;12202532;19;20007;-80
2022/09/03 08:08:16;;;;;;;6.03;3.70;;;;;;;17.15;94.53;99464.03;12228462;19;20002;-80
2022/09/03 08:12:20;;;;;;;5.55;3.28;;;;;;;17.58;93.98;99471.44;12227126;19;20010;-80
2022/09/03 08:16:21;;;;;;;6.03;3.00;;;;;;;18.04;89.77;99474.28;12205963;19;20018;-81
2022/09/03 08:20:23;;;;;;;5.55;2.30;;;;;;;18.41;85.06;99476.06;12227398;19;20084;-83
2022/09/03 08:24:25;;;;;;;4.38;2.75;;;;;;;18.70;82.80;99465.69;12225513;19;20036;-81
2022/09/03 08:28:27;;;;;;;4.45;2.95;;;;;;;18.91;81.48;99461.34;12202446;19;20074;-82
2022/09/03 08:32:29;;;;;;;5.18;2.70;;;;;;;19.02;81.03;99459.16;12226118;19;20086;-81
2022/09/03 08:36:33;;;;;;;4.13;2.95;;;;;;;19.11;82.08;99460.88;12215637;19;20561;-81
2022/09/03 08:40:36;;;;;;;4.43;2.92;;;;;;;19.28;82.86;99454.63;12233810;19;20123;-82
2022/09/03 08:44:49;;;;;;;4.65;2.78;;;;;;;19.30;81.95;99448.69;12233735;19;20483;-82
2022/09/03 08:48:51;;;;;;;3.83;2.83;;;;;;;19.40;82.22;99462.44;12221785;19;20000;-82
2022/09/03 08:53:13;;;;;;;4.45;3.17;;;;;;;19.63;81.42;99468.00;12231481;19;20076;-82
2022/09/03 08:57:18;;;;;;;4.68;3.05;;;;;;;19.80;78.97;99473.75;12240137;19;20070;-81
2022/09/03 09:02:09;;;;;;;4.90;3.15;;;;;;;20.05;78.77;99483.44;12215688;19;20019;-80
2022/09/03 09:06:54;;;;;;;4.55;2.83;;;;;;;20.27;78.52;99488.16;12239104;19;20011;-80
2022/09/03 09:11:07;;;;;;;4.50;2.65;;;;;;;20.42;77.17;99487.72;12211903;19;20028;-80
2022/09/03 09:15:12;;;;;;;3.70;2.90;;;;;;;20.55;75.06;99499.16;12230341;19;20007;-80
2022/09/03 09:19:30;;;;;;;4.40;2.90;;;;;;;20.52;76.00;99508.16;12211902;19;20007;-80
2022/09/03 09:23:42;;;;;;;3.97;2.78;;;;;;;20.37;76.66;99509.41;12229924;19;20015;-81
2022/09/03 09:28:01;;;;;;;3.00;2.25;;;;;;;20.31;76.16;99519.09;12207347;19;20441;-78
2022/09/03 09:32:07;;;;;;;5.25;2.97;;;;;;;20.30;76.38;99521.06;12224949;19;20070;-78
2022/09/03 09:36:15;;;;;;;4.97;3.00;;;;;;;20.37;75.75;99515.84;12227641;19;20453;-78
2022/09/03 09:40:32;;;;;;;4.03;2.83;;;;;;;20.22;75.95;99516.25;12201112;19;20099;-78
2022/09/03 09:44:35;;;;;;;4.18;2.92;;;;;;;20.09;77.60;99511.59;12220572;19;20499;-78
2022/09/03 09:48:47;;;;;;;4.15;3.30;;;;;;;20.12;79.17;99503.38;12202609;19;20435;-80
2022/09/03 09:53:07;;;;;;;4.18;3.25;;;;;;;20.07;80.12;99497.91;12219440;19;20069;-79
2022/09/03 09:57:24;;;;;;;8.05;2.90;;;;;;;20.01;79.23;99507.59;12219386;19;20773;-79
2022/09/03 10:01:29;;;;;;;3.90;2.80;;;;;;;20.31;78.44;99513.50;12199811;19;20023;-79
2022/09/03 10:05:36;;;;;;;4.82;2.65;;;;;;;20.77;76.04;99523.44;12217375;19;20340;-78
2022/09/03 10:09:38;;;;;;;6.07;2.92;;;;;;;21.45;74.04;99507.91;12199274;19;20023;-78
2022/09/03 10:13:44;;;;;;;8.05;3.40;;;;;;;21.75;68.59;99517.31;12252594;19;20006;-77
2022/09/03 10:17:59;;;;;;;4.18;2.92;;;;;;;21.96;67.86;99508.19;12270875;19;20003;-77
2022/09/03 10:22:08;;;;;;;4.63;2.80;;;;;;;22.73;67.70;99501.50;12204883;19;20048;-80
2022/09/03 10:26:15;;;;;;;5.88;3.30;;;;;;;23.03;66.17;99500.69;12217773;19;20033;-79
2022/09/03 10:30:17;;;;;;;3.53;2.67;;;;;;;23.04;65.38;99496.72;12217292;19;20022;-80
2022/09/03 10:34:40;;;;;;;6.67;3.83;;;;;;;23.27;63.29;99502.84;12196656;19;20483;-80
2022/09/03 10:38:42;;;;;;;;;;;;;;;23.59;62.80;99501.25;12221067;19;20082;-80
2022/09/03 10:43:17;;;;;;;3.30;2.50;;;;;;;23.84;62.05;99510.66;12196872;19;19951;-80
2022/09/03 10:47:42;;;;;;;3.53;2.70;;;;;;;23.77;63.45;99504.78;12213466;19;20002;-79
2022/09/03 10:51:58;;;;;;;5.00;3.00;;;;;;;24.20;60.42;99506.28;12193568;19;20086;-80
2022/09/03 10:56:23;;;;;;;5.00;3.67;;;;;;;24.44;59.27;99506.38;12214104;19;20102;-78
2022/09/03 11:00:29;;;;;;;3.53;2.80;;;;;;;24.05;60.02;99504.97;12212888;19;20081;-78
2022/09/03 11:04:51;;;;;;;5.10;3.00;;;;;;;23.76;62.07;99489.84;12193475;19;20110;-80
2022/09/03 11:09:01;;;;;;;5.63;3.10;;;;;;;23.64;61.20;99486.97;12216242;19;20479;-79
2022/09/03 11:13:21;;;;;;;3.78;2.80;;;;;;;23.92;60.01;99495.69;12196883;19;20010;-79
2022/09/03 11:17:31;;;;;;;4.40;3.20;;;;;;;23.99;59.19;99486.66;12213640;19;20037;-79
2022/09/03 11:21:36;;;;;;;4.07;3.05;;;;;;;23.95;59.33;99486.53;12193266;19;19999;-79
2022/09/03 11:25:47;;;;;;;6.22;3.35;;;;;;;24.11;59.26;99484.69;12211717;19;20121;-79
2022/09/03 11:30:08;;;;;;;3.38;2.60;;;;;;;24.36;59.65;99484.72;12212844;19;20791;-80
2022/09/03 11:34:25;;;;;;;4.18;2.70;;;;;;;24.62;57.93;99472.34;12187396;19;20023;-80
2022/09/03 11:38:34;;;;;;;4.95;2.70;;;;;;;24.28;58.19;99478.03;12207906;19;20315;-77
2022/09/03 11:42:37;;;;;;;;;;;;;;;23.92;59.11;99467.53;12189590;19;20014;-79
2022/09/03 11:46:42;;;;;;;4.57;2.78;;;;;;;24.02;60.57;99463.44;12211821;19;19934;-79
2022/09/03 11:50:54;;;;;;;3.40;2.50;;;;;;;25.04;56.73;99452.34;12209057;19;20007;-78
2022/09/03 11:54:59;;;;;;;4.25;2.38;;;;;;;25.98;54.65;99459.56;12185026;19;20007;-80
2022/09/03 11:59:12;;;;;;;5.13;2.75;;;;;;;26.96;51.99;99461.66;12208655;19;20537;-79
2022/09/03 12:03:17;;;;;;;4.38;2.38;;;;;;;27.26;49.80;99459.94;12206056;19;20017;-78
2022/09/03 12:07:38;;;;;;;2.78;1.95;;;;;;;27.13;49.80;99455.59;12182978;19;20034;-80
2022/09/03 12:12:08;;;;;;;3.83;2.63;;;;;;;26.67;50.93;99446.81;12207705;19;20089;-79
2022/09/03 12:16:40;;;;;;;3.53;2.50;;;;;;;27.49;48.05;99454.38;12189566;19;20018;-81
2022/09/03 12:20:59;;;;;;;2.78;2.20;;;;;;;27.30;47.41;99457.19;12209962;19;20043;-80
2022/09/03 12:25:15;;;;;;;2.58;2.03;;;;;;;26.64;48.98;99453.22;12190996;19;20078;-80
2022/09/03 12:29:28;;;;;;;2.65;2.10;;;;;;;26.37;49.55;99447.28;12216061;19;20021;-79
2022/09/03 12:33:40;;;;;;;5.60;2.47;;;;;;;26.22;49.22;99447.28;12190432;19;20002;-79
2022/09/03 12:37:44;;;;;;;4.72;2.88;;;;;;;25.98;50.79;99443.44;12216689;19;20018;-80
2022/09/03 12:42:15;;;;;;;2.90;2.38;;;;;;;26.45;49.89;99436.16;12216388;19;20006;-81
2022/09/03 12:46:17;;;;;;;3.83;2.60;;;;;;;26.76;47.94;99424.84;12194827;19;20058;-81
2022/09/03 12:50:23;;;;;;;4.20;2.35;;;;;;;26.78;48.45;99430.94;12219509;19;20767;-80
2022/09/03 12:54:26;;;;;;;4.45;2.60;;;;;;;26.74;48.76;99427.22;12215123;19;20019;-80
2022/09/03 12:58:39;;;;;;;4.05;2.45;;;;;;;26.95;47.62;99434.53;12195256;19;20073;-78
2022/09/03 13:03:04;;;;;;;5.10;2.70;;;;;;;27.22;46.79;99439.25;12213183;19;20031;-78
2022/09/03 13:07:22;;;;;;;3.33;2.33;;;;;;;27.19;46.41;99442.81;12194696;19;20010;-78
2022/09/03 13:11:24;;;;;;;3.58;2.75;;;;;;;27.14;46.35;99448.72;12217371;19;20037;-78
2022/09/03 13:15:28;;;;;;;4.07;2.65;;;;;;;27.19;46.40;99453.31;12218656;19;20042;-78
2022/09/03 13:19:35;;;;;;;4.97;2.50;;;;;;;27.36;46.24;99443.56;12197189;19;20522;-79
2022/09/03 13:23:56;;;;;;;5.03;2.45;;;;;;;28.04;45.15;99444.94;12216634;19;20074;-79
2022/09/03 13:28:22;;;;;;;7.82;3.03;;;;;;;27.81;44.73;99444.91;12200732;19;20015;-79
2022/09/03 13:32:26;;;;;;;7.43;2.85;;;;;;;27.63;45.55;99455.84;12216380;19;20014;-80
2022/09/03 13:36:48;;;;;;;3.15;2.33;;;;;;;27.58;46.29;99456.16;12216841;19;20010;-79
2022/09/03 13:41:02;;;;;;;3.50;2.40;;;;;;;29.36;43.42;99455.59;12201693;19;20011;-80
2022/09/03 13:45:30;;;;;;;2.40;2.08;;;;;;;30.89;38.67;99449.91;12222965;19;20011;-80
2022/09/03 13:54:12;;;;;;;2.65;1.85;;;;;;;30.07;39.19;99440.63;12223174;19;19998;-79
2022/09/03 13:58:32;;;;;;;2.92;2.22;;;;;;;29.33;40.55;99439.34;12197398;19;20026;-79
2022/09/03 14:03:14;;;;;;;3.75;2.20;;;;;;;28.76;40.99;99436.47;12219644;19;20014;-79
2022/09/03 14:07:24;;;;;;;2.80;1.88;;;;;;;27.80;42.52;99444.09;12203615;19;20470;-79
2022/09/03 14:11:33;;;;;;;2.28;1.70;;;;;;;27.56;43.03;99433.88;12219107;19;20025;-80
2022/09/03 14:15:44;;;;;;;6.30;2.20;;;;;;;27.67;43.44;99429.25;12194030;19;20003;-80
2022/09/03 14:19:59;;;;;;;3.05;1.90;;;;;;;27.45;43.79;99422.31;12227747;19;20551;-81
2022/09/03 14:24:33;;;;;;;2.72;1.70;;;;;;;27.35;43.46;99416.47;12229770;19;20028;-80
2022/09/03 14:28:39;;;;;;;2.95;2.00;;;;;;;27.16;43.76;99415.28;12206079;19;20027;-80
2022/09/03 14:32:53;;;;;;;2.25;1.80;;;;;;;27.39;43.52;99423.81;12229693;19;20065;-80
2022/09/03 14:37:13;;;;;;;2.78;1.70;;;;;;;28.04;42.45;99428.75;12207806;19;20419;-80
2022/09/03 14:41:51;;;;;;;3.53;1.98;;;;;;;28.80;41.42;99420.34;12230352;19;20020;-81
2022/09/03 14:46:26;;;;;;;3.58;1.80;;;;;;;28.85;41.43;99424.84;12199433;19;20027;-80
2022/09/03 14:51:03;;;;;;;2.50;1.80;;;;;;;29.07;41.15;99426.84;12228881;19;20033;-80
2022/09/03 14:55:34;;;;;;;2.47;1.85;;;;;;;28.78;41.37;99425.56;12199877;19;20031;-81
2022/09/03 14:59:42;;;;;;;2.65;2.17;;;;;;;28.63;41.47;99415.22;12227472;19;20014;-80
2022/09/03 15:04:19;;;;;;;3.05;2.10;;;;;;;28.47;41.81;99420.22;12205718;19;20020;-80
2022/09/03 15:08:45;;;;;;;2.50;1.95;;;;;;;27.80;42.35;99421.44;12225788;19;20011;-80
2022/09/03 15:13:09;;;;;;;2.70;1.83;;;;;;;27.34;43.52;99412.00;12204933;19;20018;-80
2022/09/03 15:17:39;;;;;;;2.95;2.00;;;;;;;26.94;43.97;99418.78;12224206;19;20090;-81
2022/09/03 15:21:54;;;;;;;2.78;1.85;;;;;;;26.45;44.85;99414.38;12206310;19;20027;-80
2022/09/03 15:26:18;;;;;;;2.67;1.90;;;;;;;26.09;46.04;99418.31;12222896;19;20019;-80
2022/09/03 15:30:20;;;;;;;2.78;1.95;;;;;;;25.75;46.64;99420.59;12225262;19;20010;-80
2022/09/03 15:34:33;;;;;;;2.58;1.88;;;;;;;25.49;46.77;99423.91;12201537;19;20028;-80
2022/09/03 15:38:50;;;;;;;3.10;1.70;;;;;;;25.20;48.20;99423.09;12220772;19;20015;-80
2022/09/03 15:42:57;;;;;;;2.60;1.80;;;;;;;25.03;48.42;99434.59;12209064;19;20003;-80
2022/09/03 15:47:04;;;;;;;2.42;1.85;;;;;;;24.79;49.12;99433.47;12229665;19;20029;-80
2022/09/03 15:51:44;;;;;;;3.22;2.03;;;;;;;24.68;49.46;99439.94;12231953;19;20014;-80
2022/09/03 15:55:47;;;;;;;2.42;1.83;;;;;;;24.51;50.01;99441.84;12210624;19;20014;-80
2022/09/03 15:59:48;;;;;;;;;;;;;;;24.40;50.88;99437.81;12242976;19;20503;-80
2022/09/03 16:04:00;;;;;;;2.95;1.85;;;;;;;24.37;50.34;99446.97;12218454;19;20274;-80
2022/09/03 16:08:18;;;;;;;3.63;2.17;;;;;;;24.32;50.88;99442.38;12237042;19;20015;-79
2022/09/03 16:12:44;;;;;;;3.30;2.40;;;;;;;24.30;51.17;99438.25;12238547;19;20267;-79
2022/09/03 16:17:27;;;;;;;3.30;2.22;;;;;;;24.31;51.83;99429.47;12246593;19;20007;-79
2022/09/03 16:21:29;;;;;;;3.50;2.13;;;;;;;24.24;51.83;99428.41;12259186;19;20111;-79
2022/09/03 16:25:37;;;;;;;2.25;1.88;;;;;;;24.16;52.36;99440.63;12216923;19;20053;-79
2022/09/03 16:29:39;;;;;;;2.10;1.80;;;;;;;24.14;52.00;99440.13;12236581;19;20495;-79
2022/09/03 16:34:16;;;;;;;3.50;2.20;;;;;;;24.01;53.38;99439.31;12211673;19;20018;-79
2022/09/03 16:38:28;;;;;;;3.47;2.30;;;;;;;23.88;53.65;99444.06;12226270;19;20007;-79
2022/09/03 16:42:43;;;;;;;4.18;2.38;;;;;;;23.75;54.93;99448.84;12232798;19;20023;-79
2022/09/03 16:46:58;;;;;;;5.00;2.90;;;;;;;23.53;56.13;99457.63;12208499;19;20010;-79
2022/09/03 16:51:27;;;;;;;4.63;2.58;;;;;;;23.35;57.34;99459.75;12230920;19;20007;-79
2022/09/03 16:55:58;;;;;;;4.18;2.80;;;;;;;23.23;57.54;99463.38;12205746;19;20010;-79
2022/09/03 17:00:19;;;;;;;2.95;1.83;;;;;;;22.90;59.89;99485.69;12232046;19;20014;-79
2022/09/03 17:04:21;;;;;;;3.17;1.38;;;;;;;22.38;60.39;99480.38;12204026;19;20394;-79
2022/09/03 17:08:31;;;;;;;1.92;1.30;;;;;;;22.07;61.22;99485.06;12224626;19;20098;-78
2022/09/03 17:12:51;;;;;;;2.00;1.10;;;;;;;21.82;62.09;99485.94;12226625;19;20031;-78
2022/09/03 17:17:15;;;;;;;2.83;0.85;;;;;;;21.59;62.17;99493.72;12204152;19;20465;-80
2022/09/03 17:21:32;;;;;;;1.50;0.40;;;;;;;21.29;62.21;99485.13;12225833;19;20413;-79
2022/09/03 17:26:05;;;;;;;1.27;0.60;;;;;;;21.01;63.11;99489.41;12233040;19;20034;-77
2022/09/03 17:30:09;;;;;;;6.32;0.70;;;;;;;20.73;63.94;99486.84;12264039;19;20018;-77
2022/09/03 17:34:53;;;;;;;3.33;1.00;;;;;;;20.55;65.91;99483.16;12240033;19;20006;-78
2022/09/03 17:39:07;;;;;;;1.02;0.65;;;;;;;20.43;65.53;99468.94;12228563;19;20018;-78
2022/09/03 17:43:41;;;;;;;2.65;0.90;;;;;;;20.32;66.22;99482.41;12208208;19;20555;-78
2022/09/03 17:47:52;;;;;;;2.72;0.85;;;;;;;20.20;66.98;99493.41;12222069;19;20076;-78
2022/09/03 17:52:12;;;;;;;1.10;0.70;;;;;;;20.08;67.77;99505.19;12203080;19;20023;-78
2022/09/03 17:56:28;;;;;;;0.70;0.50;;;;;;;19.94;68.29;99502.47;12223472;19;20015;-78
2022/09/03 18:00:36;;;;;;;1.30;0.98;;;;;;;19.75;69.09;99505.47;12224300;19;20007;-78
2022/09/03 18:04:47;;;;;;;1.23;0.80;;;;;;;19.60;70.11;99516.97;12198136;19;20093;-79
2022/09/03 18:09:15;;;;;;;1.60;0.80;;;;;;;19.44;71.56;99526.88;12223197;19;20032;-79
2022/09/03 18:13:38;;;;;;;0.60;0.50;;;;;;;19.30;71.52;99540.88;12199008;19;20017;-79
2022/09/03 18:17:50;;;;;;;1.27;0.88;;;;;;;19.24;72.15;99553.31;12222194;19;20025;-78
2022/09/03 20:12:04;;;;;;;2.72;1.90;;;;;;;18.16;84.67;99605.66;12228686;19;20087;-79
2022/09/03 20:16:31;;;;;;;2.78;1.83;;;;;;;18.15;85.38;99617.13;12205538;19;20023;-80
2022/09/03 20:20:56;;;;;;;3.05;1.80;;;;;;;18.12;86.20;99615.78;12229187;19;20017;-79
2022/09/03 20:25:14;;;;;;;3.72;2.40;;;;;;;18.10;86.81;99617.22;12197531;19;20148;-79
2022/09/03 20:29:32;;;;;;;3.80;2.70;;;;;;;18.07;87.27;99627.00;12227383;19;20070;-80
2022/09/03 20:33:48;;;;;;;4.38;3.00;;;;;;;18.04;87.94;99630.41;12211071;19;20082;-79
2022/09/03 20:38:20;;;;;;;3.72;2.45;;;;;;;17.98;88.65;99626.03;12226365;19;20051;-79
2022/09/03 20:42:42;;;;;;;6.70;3.15;;;;;;;17.91;89.73;99631.19;12221598;19;20018;-79
2022/09/03 20:47:06;;;;;;;4.00;2.30;;;;;;;17.88;90.35;99624.25;12198667;19;20389;-81
2022/09/03 20:51:21;;;;;;;5.32;2.90;;;;;;;17.82;91.38;99622.69;12224292;19;20011;-80
2022/09/03 20:55:28;;;;;;;5.32;3.05;;;;;;;17.79;92.22;99628.00;12198605;19;20037;-80
2022/09/03 20:59:51;;;;;;;5.50;3.13;;;;;;;17.73;92.81;99639.22;12224084;19;20026;-80
2022/09/03 21:04:02;;;;;;;4.20;3.10;;;;;;;17.69;93.36;99638.16;12199354;19;20119;-80
2022/09/03 21:08:23;;;;;;;6.57;3.67;;;;;;;17.66;94.92;99641.53;12221421;19;20017;-80
2022/09/03 21:12:50;;;;;;;6.95;3.90;;;;;;;17.61;95.52;99641.63;12220100;19;20021;-79
2022/09/03 21:17:04;;;;;;;6.28;3.95;;;;;;;17.56;96.20;99640.88;12201909;19;20095;-79
2022/09/03 21:21:31;;;;;;;5.93;3.67;;;;;;;17.51;96.36;99645.38;12220831;19;20006;-79
2022/09/03 21:25:43;;;;;;;5.68;3.42;;;;;;;17.50;96.98;99651.25;12195784;19;20029;-79